LSGG/GVA METAR and TAF weather

Enter ICAO airport designator
Station Type Date Time Source
LSGG METAR 2021/04/18 02:50 UTC NOAA

LSGG 180250Z AUTO VRB02KT 9999 NSC 04/M01 Q1017 NOSIG


Station Type Date Time Source
LSGG Decoded METAR 2021/04/18 02:50 UTC NOAA

Geneve-Cointrin, Switzerland (LSGG) 46-15N 006-08E 416M
Apr 17, 2021 - 10:50 PM EDT / 2021.04.18 0250 UTC
Wind: Variable at 2 MPH (2 KT):0
Visibility: greater than 7 mile(s):0
Temperature: 39 F (4 C)
Dew Point: 30 F (-1 C)
Relative Humidity: 69%
Pressure (altimeter): 30.03 in. Hg (1017 hPa)
ob: LSGG 180250Z AUTO VRB02KT 9999 NSC 04/M01 Q1017 NOSIG
cycle: 3

Station Type Date Time Source
LSGG TAF 2021/04/18 03:34 UTC NOAA

TAF LSGG 180225Z 1803/1909 05004KT 9999 FEW050 TX11/1815Z TN00/1805Z TN01/1905Z
BECMG 1808/1811 05014KT PROB30 1812/1815 FEW050TCU
BECMG 1821/1823 05004KT

Example: see airport list